createdAt,value
2022-10-01T00:02:00.422Z,92.47
2022-10-01T00:04:29.031Z,93.06
2022-10-01T00:06:59.198Z,93.02
2022-10-01T00:09:32.567Z,92.93
2022-10-01T00:12:03.454Z,93.49
2022-10-01T00:14:30.805Z,93.95
2022-10-01T00:16:58.198Z,93.68
2022-10-01T00:19:25.631Z,94.14
2022-10-01T00:21:52.974Z,94.78
2022-10-01T00:24:20.302Z,94.67
2022-10-01T00:26:48.097Z,94.92
2022-10-01T00:29:15.504Z,94.75
2022-10-01T00:31:43.349Z,94.86
2022-10-01T00:34:14.966Z,95.16
2022-10-01T00:36:42.579Z,95.35
2022-10-01T00:39:12.326Z,95.42
2022-10-01T00:41:39.845Z,95.49
2022-10-01T00:44:34.777Z,95.94
2022-10-01T00:47:13.778Z,95.64
2022-10-01T00:49:43.704Z,96.22
2022-10-01T00:52:22.113Z,96.31
2022-10-01T00:55:04.891Z,96.23
2022-10-01T00:57:34.588Z,96.08
2022-10-01T01:00:07.813Z,96.15
2022-10-01T01:02:35.855Z,96.39
2022-10-01T01:05:05.604Z,96.46
2022-10-01T01:07:34.181Z,96.77
2022-10-01T01:10:04.279Z,96.87
2022-10-01T01:12:58.985Z,97.67
2022-10-01T01:15:43.519Z,97.58
2022-10-01T01:18:42.947Z,97.78
2022-10-01T01:21:24.907Z,98.04
2022-10-01T01:24:27.344Z,97.82
2022-10-01T01:27:16.405Z,98.23
2022-10-01T01:29:55.324Z,98.25
2022-10-01T01:32:53.406Z,98.61
2022-10-01T01:35:39.137Z,98.88
2022-10-01T01:38:17.296Z,98.94
2022-10-01T01:40:51.387Z,99.09
2022-10-01T01:43:25.524Z,99.29
2022-10-01T01:45:58.415Z,99.68
2022-10-01T01:48:29.228Z,99.48
2022-10-01T01:51:14.293Z,99.98
2022-10-01T01:53:41.722Z,100.00
2022-10-01T01:56:09.658Z,100.00
2022-10-01T01:58:39.142Z,100.00
2022-10-01T02:01:06.682Z,100.00
2022-10-01T02:03:36.699Z,100.00
2022-10-01T02:06:29.098Z,100.00
2022-10-01T02:09:31.599Z,100.00
2022-10-01T02:12:24.646Z,100.00
2022-10-01T02:15:09.592Z,100.00
2022-10-01T02:17:59.401Z,100.00
2022-10-01T02:20:42.205Z,100.00
2022-10-01T02:23:19.440Z,100.00
2022-10-01T02:25:55.430Z,100.00
2022-10-01T02:28:27.477Z,100.00
2022-10-01T02:30:57.369Z,100.00
2022-10-01T02:33:32.442Z,100.00
2022-10-01T02:36:06.137Z,100.00
2022-10-01T02:38:38.376Z,100.00
2022-10-01T02:41:11.860Z,100.00
2022-10-01T02:44:05.633Z,100.00
2022-10-01T02:46:58.680Z,100.00
2022-10-01T02:49:30.845Z,100.00
2022-10-01T02:52:27.465Z,100.00
2022-10-01T02:55:01.020Z,100.00
2022-10-01T02:57:29.592Z,100.00
2022-10-01T03:00:06.497Z,100.00
2022-10-01T03:02:33.951Z,100.00
2022-10-01T03:05:02.040Z,100.00
2022-10-01T03:07:35.461Z,100.00
2022-10-01T03:10:05.393Z,100.00
2022-10-01T03:12:33.085Z,100.00
2022-10-01T03:15:00.920Z,100.00
2022-10-01T03:17:28.769Z,100.00
2022-10-01T03:19:56.117Z,100.00
2022-10-01T03:22:24.097Z,100.00
2022-10-01T03:24:53.120Z,100.00
2022-10-01T03:27:22.172Z,100.00
2022-10-01T03:29:50.170Z,100.00
2022-10-01T03:32:17.859Z,100.00
2022-10-01T03:34:45.272Z,100.00
2022-10-01T03:37:12.725Z,100.00
2022-10-01T03:39:40.144Z,100.00
2022-10-01T03:42:07.491Z,100.00
2022-10-01T03:44:34.884Z,100.00
2022-10-01T03:47:02.233Z,100.00
2022-10-01T03:49:29.694Z,100.00
2022-10-01T03:51:57.023Z,100.00
2022-10-01T03:54:25.436Z,100.00
2022-10-01T03:56:52.793Z,100.00
2022-10-01T03:59:20.265Z,100.00
2022-10-01T04:01:47.980Z,100.00
2022-10-01T04:04:15.588Z,100.00
2022-10-01T04:06:42.925Z,100.00
2022-10-01T04:09:10.261Z,100.00
2022-10-01T04:11:39.452Z,100.00
2022-10-01T04:14:06.838Z,100.00
2022-10-01T04:16:36.428Z,100.00
2022-10-01T04:19:05.056Z,100.00
2022-10-01T04:21:32.815Z,100.00
2022-10-01T04:24:02.924Z,100.00
2022-10-01T04:26:30.274Z,100.00
2022-10-01T04:28:57.609Z,100.00
2022-10-01T04:31:25.043Z,100.00
2022-10-01T04:33:57.375Z,100.00
2022-10-01T04:36:26.106Z,100.00
2022-10-01T04:39:01.830Z,100.00
2022-10-01T04:41:32.106Z,100.00
2022-10-01T04:44:00.068Z,100.00
2022-10-01T04:46:30.272Z,100.00
2022-10-01T04:48:58.053Z,100.00
2022-10-01T04:51:25.510Z,100.00
2022-10-01T04:53:52.911Z,100.00
2022-10-01T04:56:20.284Z,100.00
2022-10-01T04:58:48.510Z,100.00
2022-10-01T05:01:15.946Z,100.00
2022-10-01T05:03:43.301Z,100.00
2022-10-01T05:06:10.719Z,100.00
2022-10-01T05:08:38.203Z,100.00
2022-10-01T05:11:05.717Z,100.00
2022-10-01T05:13:33.132Z,100.00
2022-10-01T05:16:02.223Z,100.00
2022-10-01T05:18:30.148Z,100.00
2022-10-01T05:20:57.625Z,100.00
2022-10-01T05:23:24.963Z,100.00
2022-10-01T05:25:52.311Z,100.00
2022-10-01T05:28:22.392Z,100.00
2022-10-01T05:30:51.090Z,100.00
2022-10-01T05:33:18.591Z,100.00
2022-10-01T05:35:45.945Z,100.00
2022-10-01T05:38:13.289Z,100.00
2022-10-01T05:40:46.223Z,100.00
2022-10-01T05:43:14.508Z,100.00
2022-10-01T05:45:43.171Z,100.00
2022-10-01T05:48:11.197Z,100.00
2022-10-01T05:50:40.660Z,100.00
2022-10-01T05:53:11.576Z,100.00
2022-10-01T05:55:39.084Z,100.00
2022-10-01T05:58:11.047Z,100.00
2022-10-01T06:00:41.183Z,100.00
2022-10-01T06:03:12.929Z,100.00
2022-10-01T06:05:40.818Z,100.00
2022-10-01T06:08:09.782Z,100.00
2022-10-01T06:10:38.236Z,100.00
2022-10-01T06:13:06.479Z,100.00
2022-10-01T06:15:38.125Z,100.00
2022-10-01T06:18:08.345Z,100.00
2022-10-01T06:20:36.910Z,100.00
2022-10-01T06:23:09.960Z,100.00
2022-10-01T06:25:38.328Z,100.00
2022-10-01T06:28:08.459Z,100.00
2022-10-01T06:30:38.876Z,100.00
2022-10-01T06:33:15.973Z,100.00
2022-10-01T06:35:47.194Z,100.00
2022-10-01T06:38:16.087Z,100.00
2022-10-01T06:40:43.866Z,100.00
2022-10-01T06:43:11.216Z,100.00
2022-10-01T06:45:41.014Z,100.00
2022-10-01T06:48:13.921Z,100.00
2022-10-01T06:50:47.673Z,100.00
2022-10-01T06:53:17.335Z,100.00
2022-10-01T06:55:45.300Z,100.00
2022-10-01T06:58:15.524Z,100.00
2022-10-01T07:00:44.211Z,100.00
2022-10-01T07:03:19.755Z,100.00
2022-10-01T07:05:48.522Z,100.00
2022-10-01T07:08:16.771Z,100.00
2022-10-01T07:10:45.975Z,100.00
2022-10-01T07:13:20.240Z,100.00
2022-10-01T07:15:47.702Z,100.00
2022-10-01T07:18:15.206Z,100.00
2022-10-01T07:20:42.537Z,100.00
2022-10-01T07:23:15.602Z,100.00
2022-10-01T07:25:44.147Z,100.00
2022-10-01T07:28:18.482Z,100.00
2022-10-01T07:31:12.123Z,100.00
2022-10-01T07:33:40.403Z,100.00
2022-10-01T07:36:11.308Z,100.00
2022-10-01T07:38:38.754Z,100.00
2022-10-01T07:41:06.194Z,100.00
2022-10-01T07:43:34.609Z,100.00
2022-10-01T07:46:03.442Z,100.00
2022-10-01T07:48:31.037Z,100.00
2022-10-01T07:50:58.371Z,100.00
2022-10-01T07:53:25.950Z,100.00
2022-10-01T07:55:53.494Z,100.00
2022-10-01T07:58:23.911Z,100.00
2022-10-01T08:00:56.300Z,100.00
2022-10-01T08:03:25.027Z,100.00
2022-10-01T08:05:53.633Z,100.00
2022-10-01T08:08:21.031Z,100.00
2022-10-01T08:10:50.570Z,100.00
2022-10-01T08:13:18.582Z,100.00
2022-10-01T08:15:53.461Z,100.00
2022-10-01T08:18:22.669Z,100.00
2022-10-01T08:20:50.616Z,100.00
2022-10-01T08:23:18.028Z,100.00
2022-10-01T08:25:47.715Z,100.00
2022-10-01T08:28:16.059Z,100.00
2022-10-01T08:30:46.109Z,100.00
2022-10-01T08:33:14.701Z,100.00
2022-10-01T08:35:43.582Z,100.00
2022-10-01T08:38:12.800Z,100.00
2022-10-01T08:40:50.414Z,100.00
2022-10-01T08:43:29.420Z,100.00
2022-10-01T08:46:04.621Z,100.00
2022-10-01T08:48:47.640Z,100.00
2022-10-01T08:51:39.145Z,100.00
2022-10-01T08:54:34.897Z,100.00
2022-10-01T08:57:10.298Z,100.00
2022-10-01T08:59:44.809Z,100.00
2022-10-01T09:02:27.391Z,100.00
2022-10-01T09:05:05.045Z,100.00
2022-10-01T09:08:24.919Z,100.00
2022-10-01T09:11:13.064Z,100.00
2022-10-01T09:14:15.393Z,100.00
2022-10-01T09:17:12.788Z,100.00
2022-10-01T09:19:54.267Z,100.00
2022-10-01T09:22:40.364Z,100.00
2022-10-01T09:25:24.995Z,100.00
2022-10-01T09:28:02.300Z,100.00
2022-10-01T09:30:31.726Z,100.00
2022-10-01T09:33:11.472Z,100.00
2022-10-01T09:36:23.108Z,100.00
2022-10-01T09:39:26.873Z,100.00
2022-10-01T09:41:54.298Z,100.00
2022-10-01T09:44:37.475Z,100.00
2022-10-01T09:47:20.186Z,100.00
2022-10-01T09:49:49.791Z,100.00
2022-10-01T09:52:28.713Z,100.00
2022-10-01T09:55:22.670Z,100.00
2022-10-01T09:58:08.303Z,100.00
2022-10-01T10:00:38.621Z,100.00
2022-10-01T10:03:06.127Z,100.00
2022-10-01T10:05:48.100Z,100.00
2022-10-01T10:08:35.632Z,99.02
2022-10-01T10:11:09.606Z,98.55
2022-10-01T10:13:42.026Z,98.40
2022-10-01T10:16:25.912Z,98.56
2022-10-01T10:19:15.480Z,97.23
2022-10-01T10:21:57.889Z,97.44
2022-10-01T10:24:32.575Z,96.63
2022-10-01T10:27:03.423Z,95.32
2022-10-01T10:29:34.957Z,94.24
2022-10-01T10:32:19.152Z,94.44
2022-10-01T10:34:46.962Z,94.00
2022-10-01T10:37:23.362Z,93.01
2022-10-01T10:39:53.507Z,92.84
2022-10-01T10:42:22.995Z,92.33
2022-10-01T10:45:03.436Z,91.37
2022-10-01T10:47:33.104Z,90.90
2022-10-01T10:50:06.043Z,90.14
2022-10-01T10:52:37.318Z,89.13
2022-10-01T10:55:30.871Z,88.72
2022-10-01T10:58:42.297Z,88.48
2022-10-01T11:01:20.140Z,87.55
2022-10-01T11:03:55.274Z,87.44
2022-10-01T11:06:23.227Z,86.83
2022-10-01T11:09:04.715Z,85.65
2022-10-01T11:12:01.207Z,85.69
2022-10-01T11:14:52.200Z,84.67
2022-10-01T11:18:02.297Z,84.20
2022-10-01T11:21:03.609Z,82.34
2022-10-01T11:24:22.371Z,81.98
2022-10-01T11:27:06.424Z,82.50
2022-10-01T11:30:14.177Z,80.69
2022-10-01T11:33:22.082Z,80.73
2022-10-01T11:36:33.940Z,81.32
2022-10-01T11:39:16.621Z,80.65
2022-10-01T11:42:13.125Z,79.34
2022-10-01T11:44:57.377Z,78.69
2022-10-01T11:47:47.879Z,80.18
2022-10-01T11:50:39.096Z,79.41
2022-10-01T11:53:20.723Z,79.23
2022-10-01T11:56:17.113Z,79.44
2022-10-01T11:58:59.353Z,79.65
2022-10-01T12:01:53.482Z,79.41
2022-10-01T12:04:35.756Z,79.17
2022-10-01T12:07:43.060Z,78.50
2022-10-01T12:10:34.383Z,77.17
2022-10-01T12:13:16.630Z,77.35
2022-10-01T12:15:58.786Z,77.43
2022-10-01T12:18:44.172Z,78.68
2022-10-01T12:21:39.524Z,79.54
2022-10-01T12:24:38.820Z,80.15
2022-10-01T12:28:01.053Z,80.97
2022-10-01T12:31:16.265Z,80.98
2022-10-01T12:34:25.199Z,80.47
2022-10-01T12:37:55.073Z,81.19
2022-10-01T12:41:30.913Z,81.78
2022-10-01T12:44:16.989Z,81.34
2022-10-01T12:47:18.880Z,81.08
2022-10-01T12:50:11.796Z,79.07
2022-10-01T12:53:20.516Z,78.09
2022-10-01T12:56:09.196Z,78.00
2022-10-01T12:59:06.227Z,76.98
2022-10-01T13:01:42.718Z,75.68
2022-10-01T13:04:23.752Z,74.80
2022-10-01T13:07:19.056Z,74.30
2022-10-01T13:10:03.335Z,72.86
2022-10-01T13:13:04.273Z,72.21
2022-10-01T13:15:39.142Z,71.69
2022-10-01T13:18:43.515Z,69.89
2022-10-01T13:21:34.240Z,70.43
2022-10-01T13:24:27.156Z,70.07
2022-10-01T13:27:21.752Z,70.12
2022-10-01T13:30:03.360Z,69.99
2022-10-01T13:32:33.948Z,70.82
2022-10-01T13:35:39.460Z,70.15
2022-10-01T13:38:33.636Z,69.86
2022-10-01T13:41:05.120Z,70.85
2022-10-01T13:43:35.210Z,70.84
2022-10-01T13:46:11.254Z,70.30
2022-10-01T13:48:48.540Z,69.38
2022-10-01T13:51:16.948Z,69.59
2022-10-01T13:53:44.887Z,69.64
2022-10-01T13:56:29.797Z,69.74
2022-10-01T13:58:57.768Z,69.17
2022-10-01T14:01:40.216Z,69.74
2022-10-01T14:04:43.389Z,68.93
2022-10-01T14:07:25.159Z,68.88
2022-10-01T14:09:58.365Z,68.94
2022-10-01T14:12:52.971Z,67.96
2022-10-01T14:15:44.425Z,66.38
2022-10-01T14:18:21.986Z,66.50
2022-10-01T14:22:05.548Z,67.11
2022-10-01T14:25:27.063Z,67.05
2022-10-01T14:28:31.815Z,67.69
2022-10-01T14:31:20.577Z,67.64
2022-10-01T14:34:24.830Z,67.71
2022-10-01T14:36:55.860Z,67.41
2022-10-01T14:39:27.731Z,67.77
2022-10-01T14:41:58.021Z,68.14
2022-10-01T14:44:28.490Z,68.39
2022-10-01T14:46:58.866Z,67.82
2022-10-01T14:49:32.343Z,68.00
2022-10-01T14:52:08.055Z,67.74
2022-10-01T14:54:46.965Z,68.00
2022-10-01T14:57:49.964Z,67.71
2022-10-01T15:00:28.319Z,67.77
2022-10-01T15:03:07.609Z,67.05
2022-10-01T15:05:37.111Z,66.97
2022-10-01T15:08:36.369Z,67.51
2022-10-01T15:11:27.992Z,67.40
2022-10-01T15:14:04.951Z,66.47
2022-10-01T15:16:33.511Z,66.61
2022-10-01T15:19:09.210Z,66.46
2022-10-01T15:21:45.193Z,65.86
2022-10-01T15:24:43.305Z,65.42
2022-10-01T15:27:15.191Z,64.63
2022-10-01T15:29:44.365Z,65.24
2022-10-01T15:32:18.043Z,64.92
2022-10-01T15:34:57.837Z,65.37
2022-10-01T15:37:34.770Z,65.70
2022-10-01T15:40:05.878Z,64.98
2022-10-01T15:42:34.803Z,65.10
2022-10-01T15:45:08.163Z,64.69
2022-10-01T15:47:37.673Z,65.15
2022-10-01T15:50:10.835Z,65.38
2022-10-01T15:53:03.259Z,65.25
2022-10-01T15:55:35.432Z,65.88
2022-10-01T15:58:15.559Z,65.78
2022-10-01T16:01:06.474Z,66.40
2022-10-01T16:03:39.420Z,66.59
2022-10-01T16:06:23.573Z,66.66
2022-10-01T16:09:14.474Z,66.45
2022-10-01T16:12:19.952Z,66.40
2022-10-01T16:15:03.376Z,67.01
2022-10-01T16:17:37.319Z,67.54
2022-10-01T16:20:13.875Z,68.01
2022-10-01T16:22:43.392Z,68.76
2022-10-01T16:25:22.742Z,69.28
2022-10-01T16:27:57.876Z,69.49
2022-10-01T16:30:27.827Z,69.72
2022-10-01T16:32:57.847Z,70.26
2022-10-01T16:35:30.314Z,70.48
2022-10-01T16:37:58.250Z,70.81
2022-10-01T16:40:32.844Z,70.89
2022-10-01T16:43:00.831Z,71.11
2022-10-01T16:45:38.624Z,71.20
2022-10-01T16:48:19.483Z,71.70
2022-10-01T16:50:47.303Z,71.94
2022-10-01T16:53:20.309Z,72.20
2022-10-01T16:55:47.766Z,72.39
2022-10-01T16:58:15.689Z,72.43
2022-10-01T17:00:43.248Z,72.83
2022-10-01T17:03:18.364Z,72.95
2022-10-01T17:05:46.035Z,72.89
2022-10-01T17:08:14.648Z,73.44
2022-10-01T17:10:56.853Z,73.63
2022-10-01T17:13:31.278Z,74.05
2022-10-01T17:15:59.886Z,74.14
2022-10-01T17:18:27.702Z,74.42
2022-10-01T17:20:56.172Z,74.71
2022-10-01T17:23:23.994Z,74.85
2022-10-01T17:25:51.380Z,75.03
2022-10-01T17:28:20.544Z,75.21
2022-10-01T17:30:49.388Z,75.37
2022-10-01T17:33:19.550Z,75.45
2022-10-01T17:35:51.815Z,75.93
2022-10-01T17:38:19.685Z,75.80
2022-10-01T17:40:51.775Z,76.03
2022-10-01T17:43:21.525Z,76.19
2022-10-01T17:46:00.627Z,76.65
2022-10-01T17:48:29.856Z,76.79
2022-10-01T17:51:08.359Z,76.81
2022-10-01T17:53:42.183Z,77.12
2022-10-01T17:56:15.650Z,77.44
2022-10-01T17:58:45.527Z,77.35
2022-10-01T18:01:19.513Z,77.76
2022-10-01T18:03:47.375Z,77.68
2022-10-01T18:06:16.012Z,77.91
2022-10-01T18:08:55.019Z,77.94
2022-10-01T18:11:25.783Z,78.24
2022-10-01T18:13:53.287Z,78.37
2022-10-01T18:16:21.907Z,78.52
2022-10-01T18:21:47.209Z,79.10
2022-10-01T18:24:15.764Z,79.10
2022-10-01T18:26:45.542Z,79.05
2022-10-01T18:29:24.045Z,79.48
2022-10-01T18:32:14.283Z,79.52
2022-10-01T18:35:21.783Z,79.53
2022-10-01T18:37:58.339Z,79.53
2022-10-01T18:40:36.633Z,80.01
2022-10-01T18:43:20.394Z,80.29
2022-10-01T18:46:42.344Z,80.34
2022-10-01T18:49:43.012Z,80.63
2022-10-01T18:52:35.851Z,80.63
2022-10-01T18:55:31.263Z,81.16
2022-10-01T18:58:35.600Z,81.13
2022-10-01T19:01:47.795Z,81.40
2022-10-01T19:04:47.570Z,82.07
2022-10-01T19:07:53.729Z,82.06
2022-10-01T19:10:45.028Z,82.06
2022-10-01T19:13:26.628Z,81.79
2022-10-01T19:16:55.421Z,82.75
2022-10-01T19:19:43.701Z,82.34
2022-10-01T19:22:52.901Z,82.51
2022-10-01T19:25:42.549Z,82.61
2022-10-01T19:28:39.451Z,82.92
2022-10-01T19:31:41.573Z,83.38
2022-10-01T19:34:26.207Z,82.97
2022-10-01T19:37:02.087Z,83.17
2022-10-01T19:39:38.724Z,83.47
2022-10-01T19:42:17.364Z,84.09
2022-10-01T19:45:11.857Z,83.79
2022-10-01T19:48:07.879Z,84.23
2022-10-01T19:50:42.244Z,84.35
2022-10-01T19:53:34.156Z,84.13
2022-10-01T19:56:02.160Z,83.94
2022-10-01T19:58:32.479Z,84.25
2022-10-01T20:01:03.798Z,84.69
2022-10-01T20:03:38.687Z,84.69
2022-10-01T20:06:24.868Z,84.56
2022-10-01T20:09:07.605Z,85.04
2022-10-01T20:11:51.577Z,85.10
2022-10-01T20:15:09.407Z,85.09
2022-10-01T20:18:07.932Z,85.13
2022-10-01T20:20:44.841Z,85.16
2022-10-01T20:23:59.108Z,85.64
2022-10-01T20:26:50.834Z,85.51
2022-10-01T20:29:43.277Z,85.46
2022-10-01T20:32:33.198Z,85.92
2022-10-01T20:35:40.516Z,85.74
2022-10-01T20:38:25.214Z,85.92
2022-10-01T20:40:58.418Z,86.19
2022-10-01T20:43:44.422Z,86.28
2022-10-01T20:46:26.506Z,86.81
2022-10-01T20:49:12.225Z,86.63
2022-10-01T20:51:52.957Z,87.06
2022-10-01T20:54:26.989Z,87.09
2022-10-01T20:57:46.971Z,86.82
2022-10-01T21:00:23.660Z,86.92
2022-10-01T21:03:05.396Z,86.83
2022-10-01T21:05:43.706Z,87.16
2022-10-01T21:08:20.826Z,87.62
2022-10-01T21:10:53.985Z,87.57
2022-10-01T21:13:30.347Z,87.86
2022-10-01T21:16:25.317Z,87.88
2022-10-01T21:19:17.453Z,87.98
2022-10-01T21:22:37.571Z,88.32
2022-10-01T21:25:28.136Z,88.28
2022-10-01T21:28:28.883Z,88.55
2022-10-01T21:31:47.428Z,88.73
2022-10-01T21:34:55.025Z,89.12
2022-10-01T21:37:33.952Z,89.11
2022-10-01T21:40:31.748Z,89.72
2022-10-01T21:43:16.659Z,90.08
2022-10-01T21:45:49.942Z,90.12
2022-10-01T21:48:41.452Z,90.63
2022-10-01T21:51:17.752Z,90.67
2022-10-01T21:54:16.825Z,90.71
2022-10-01T21:56:53.042Z,90.77
2022-10-01T22:00:11.924Z,91.06
2022-10-01T22:03:06.272Z,91.46
2022-10-01T22:05:52.533Z,91.48
2022-10-01T22:08:56.024Z,91.85
2022-10-01T22:11:31.561Z,91.99
2022-10-01T22:14:03.886Z,92.32
2022-10-01T22:16:42.866Z,92.64
2022-10-01T22:19:18.132Z,92.64
2022-10-01T22:21:52.768Z,92.39
2022-10-01T22:24:39.509Z,92.44
2022-10-01T22:27:21.036Z,92.70
2022-10-01T22:30:06.749Z,93.13
2022-10-01T22:33:02.915Z,93.18
2022-10-01T22:36:02.940Z,93.12
2022-10-01T22:38:40.702Z,93.41
2022-10-01T22:41:25.115Z,93.58
2022-10-01T22:43:52.670Z,94.07
2022-10-01T22:46:28.929Z,94.47
2022-10-01T22:49:20.510Z,94.50
2022-10-01T22:52:37.105Z,94.66
2022-10-01T22:55:28.141Z,94.66
2022-10-01T22:58:23.056Z,94.57
2022-10-01T23:01:18.941Z,94.90
2022-10-01T23:04:20.540Z,94.88
2022-10-01T23:07:31.594Z,94.72
2022-10-01T23:10:13.775Z,95.00
2022-10-01T23:12:59.642Z,94.96
2022-10-01T23:15:54.918Z,95.27
2022-10-01T23:18:45.996Z,95.48
2022-10-01T23:21:33.142Z,95.43
2022-10-01T23:24:28.582Z,95.36
2022-10-01T23:27:11.857Z,96.13
2022-10-01T23:30:08.620Z,96.21
2022-10-01T23:32:59.737Z,96.24
2022-10-01T23:35:48.746Z,96.69
2022-10-01T23:38:22.021Z,96.58
2022-10-01T23:40:52.120Z,96.89
2022-10-01T23:43:33.096Z,96.61
2022-10-01T23:46:11.620Z,96.73
2022-10-01T23:49:12.396Z,96.96
2022-10-01T23:51:58.981Z,97.09
2022-10-01T23:54:38.376Z,97.12
2022-10-01T23:57:19.108Z,97.07
